Airfield :
LOGIN :

Register | Disclaimer

   EN    FR    IT 

 










Legend :    VFR   Marginal VFR   IFR   Intensive IFR   Very Intensive IFR
Visi :
Ceiling :
>= 8 km
>= 3000ft
5 to 8 km
1000 to 3000 ft
1500m to 5 km
500 to 1000 ft
800 to 1500m
200 to 500 ft
< 800m
< 200 ft
Symbols :   Thunderstorms  Fog  Heavy snow  Heavy precipitations  Wind > 20 kt
SIGMETs :     Misc.  Thunderstorms  Icing  Turbulence  Mountain Waves  Volcanic Ashes







- Airport Elevation : 370 ft


EBBE - Beauvechain AB

CURRENT METAR :
  • 200325Z AUTO 20006KT 9999 BKN100/// BKN120/// 02/01 Q1021 BLU

EXPIRED METARs :
  • 200255Z AUTO 20006KT 9999 FEW080/// BKN120/// OVC140/// 02/00 Q1022 BLU
  • 200225Z AUTO 21006KT 9999 BKN080/// 02/01 Q1022 BLU
  • 200155Z AUTO 21005KT 9999 FEW090/// 02/00 Q1022 BLU
  • 200125Z AUTO 22006KT 9999 FEW110/// BKN140/// 02/00 Q1022 BLU
  • 200055Z AUTO 23005KT 9999 FEW110/// 02/00 Q1023 BLU

Expired Forecast.
No reported NOTAMs for that airfield.



MET'MAP, your aeronautical weather chart ! - Copyright ORBIFLY December 2007 - Disclaimer

ORBIFLY MET'MAP TEAM :

Programming & Development : Alexandra Zaïnal
Concept & Development : Baudouin d'Aumeries
Co-Development & Prog : Marc-Olivier Méhu
Technical & hardware support : Manuel Goepfert

Contact : metmap@orbifly.com




SOURCES & CREDITS :

   NOAA